sensor_id;sensor_type;location;lat;lon;timestamp;temperature;humidity
439;DHT22;206;48.782;9.252;2023-07-09T00:01:55;25.70;19.20
439;DHT22;206;48.782;9.252;2023-07-09T00:04:21;25.70;19.20
439;DHT22;206;48.782;9.252;2023-07-09T00:06:47;25.70;19.20
439;DHT22;206;48.782;9.252;2023-07-09T00:09:15;25.70;19.20
439;DHT22;206;48.782;9.252;2023-07-09T00:11:42;25.70;19.70
439;DHT22;206;48.782;9.252;2023-07-09T00:14:12;25.60;19.80
439;DHT22;206;48.782;9.252;2023-07-09T00:16:39;25.50;20.20
439;DHT22;206;48.782;9.252;2023-07-09T00:19:15;25.40;20.30
439;DHT22;206;48.782;9.252;2023-07-09T00:21:43;25.30;20.70
439;DHT22;206;48.782;9.252;2023-07-09T00:24:13;25.20;20.90
439;DHT22;206;48.782;9.252;2023-07-09T00:26:40;25.20;21.10
439;DHT22;206;48.782;9.252;2023-07-09T00:29:10;25.00;21.50
439;DHT22;206;48.782;9.252;2023-07-09T00:31:37;24.90;21.70
439;DHT22;206;48.782;9.252;2023-07-09T00:34:08;24.90;22.00
439;DHT22;206;48.782;9.252;2023-07-09T00:36:34;24.80;22.10
439;DHT22;206;48.782;9.252;2023-07-09T00:39:00;24.80;22.30
439;DHT22;206;48.782;9.252;2023-07-09T00:41:32;24.70;22.40
439;DHT22;206;48.782;9.252;2023-07-09T00:49:13;24.70;22.70
439;DHT22;206;48.782;9.252;2023-07-09T00:51:45;24.70;22.80
439;DHT22;206;48.782;9.252;2023-07-09T00:54:25;24.60;23.10
439;DHT22;206;48.782;9.252;2023-07-09T00:56:58;24.60;23.20
439;DHT22;206;48.782;9.252;2023-07-09T00:59:27;24.50;23.40
439;DHT22;206;48.782;9.252;2023-07-09T01:01:55;24.40;23.50
439;DHT22;206;48.782;9.252;2023-07-09T01:04:22;24.50;23.60
439;DHT22;206;48.782;9.252;2023-07-09T01:06:51;24.60;23.50
439;DHT22;206;48.782;9.252;2023-07-09T01:09:17;24.60;23.40
439;DHT22;206;48.782;9.252;2023-07-09T01:11:43;24.60;23.40
439;DHT22;206;48.782;9.252;2023-07-09T01:14:11;24.50;23.70
439;DHT22;206;48.782;9.252;2023-07-09T01:16:41;24.40;23.70
439;DHT22;206;48.782;9.252;2023-07-09T01:19:08;24.40;23.90
439;DHT22;206;48.782;9.252;2023-07-09T01:21:34;24.30;24.00
439;DHT22;206;48.782;9.252;2023-07-09T01:24:46;24.30;23.90
439;DHT22;206;48.782;9.252;2023-07-09T01:27:01;24.40;23.80
439;DHT22;206;48.782;9.252;2023-07-09T01:29:30;24.50;23.60
439;DHT22;206;48.782;9.252;2023-07-09T01:31:57;24.50;23.60
439;DHT22;206;48.782;9.252;2023-07-09T01:34:22;24.50;23.50
439;DHT22;206;48.782;9.252;2023-07-09T01:36:50;24.50;23.40
439;DHT22;206;48.782;9.252;2023-07-09T01:39:17;24.60;23.50
439;DHT22;206;48.782;9.252;2023-07-09T01:41:44;24.50;23.30
439;DHT22;206;48.782;9.252;2023-07-09T01:44:11;24.60;23.40
439;DHT22;206;48.782;9.252;2023-07-09T01:46:37;24.50;23.40
439;DHT22;206;48.782;9.252;2023-07-09T01:49:02;24.50;23.50
439;DHT22;206;48.782;9.252;2023-07-09T01:51:29;24.40;23.50
439;DHT22;206;48.782;9.252;2023-07-09T01:53:54;24.40;23.70
439;DHT22;206;48.782;9.252;2023-07-09T01:56:20;24.40;23.70
439;DHT22;206;48.782;9.252;2023-07-09T01:58:46;24.40;23.80
439;DHT22;206;48.782;9.252;2023-07-09T02:01:13;24.40;23.80
439;DHT22;206;48.782;9.252;2023-07-09T02:03:40;24.40;23.80
439;DHT22;206;48.782;9.252;2023-07-09T02:06:06;24.40;23.90
439;DHT22;206;48.782;9.252;2023-07-09T02:08:35;24.40;24.00
439;DHT22;206;48.782;9.252;2023-07-09T02:11:01;24.40;24.10
439;DHT22;206;48.782;9.252;2023-07-09T02:13:26;24.40;24.30
439;DHT22;206;48.782;9.252;2023-07-09T02:15:52;24.40;24.40
439;DHT22;206;48.782;9.252;2023-07-09T02:18:18;24.30;24.60
439;DHT22;206;48.782;9.252;2023-07-09T02:20:46;24.30;24.70
439;DHT22;206;48.782;9.252;2023-07-09T02:23:11;24.30;24.90
439;DHT22;206;48.782;9.252;2023-07-09T02:25:37;24.20;25.00
439;DHT22;206;48.782;9.252;2023-07-09T02:28:03;24.30;25.10
439;DHT22;206;48.782;9.252;2023-07-09T02:30:29;24.20;25.10
439;DHT22;206;48.782;9.252;2023-07-09T02:32:54;24.20;25.30
439;DHT22;206;48.782;9.252;2023-07-09T02:35:21;24.20;25.20
439;DHT22;206;48.782;9.252;2023-07-09T02:37:47;24.10;25.30
439;DHT22;206;48.782;9.252;2023-07-09T02:40:13;24.10;25.50
439;DHT22;206;48.782;9.252;2023-07-09T02:42:39;24.00;25.60
439;DHT22;206;48.782;9.252;2023-07-09T02:45:05;24.00;25.80
439;DHT22;206;48.782;9.252;2023-07-09T02:47:31;23.90;25.90
439;DHT22;206;48.782;9.252;2023-07-09T02:49:56;23.80;26.50
439;DHT22;206;48.782;9.252;2023-07-09T02:52:22;23.80;26.40
439;DHT22;206;48.782;9.252;2023-07-09T02:54:47;23.80;26.40
439;DHT22;206;48.782;9.252;2023-07-09T02:57:13;23.90;26.50
439;DHT22;206;48.782;9.252;2023-07-09T02:59:39;23.80;26.50
439;DHT22;206;48.782;9.252;2023-07-09T03:02:04;23.80;26.40
439;DHT22;206;48.782;9.252;2023-07-09T03:04:30;23.80;26.40
439;DHT22;206;48.782;9.252;2023-07-09T03:06:59;23.80;26.40
439;DHT22;206;48.782;9.252;2023-07-09T03:09:25;23.80;26.40
439;DHT22;206;48.782;9.252;2023-07-09T03:11:51;23.80;26.40
439;DHT22;206;48.782;9.252;2023-07-09T03:14:16;23.70;26.80
439;DHT22;206;48.782;9.252;2023-07-09T03:16:42;23.70;27.00
439;DHT22;206;48.782;9.252;2023-07-09T03:19:08;23.70;27.00
439;DHT22;206;48.782;9.252;2023-07-09T03:21:33;23.60;27.00
439;DHT22;206;48.782;9.252;2023-07-09T03:23:59;23.60;27.30
439;DHT22;206;48.782;9.252;2023-07-09T03:26:25;23.60;27.40
439;DHT22;206;48.782;9.252;2023-07-09T03:28:52;23.50;27.30
439;DHT22;206;48.782;9.252;2023-07-09T03:31:18;23.50;27.50
439;DHT22;206;48.782;9.252;2023-07-09T03:33:43;23.50;27.50
439;DHT22;206;48.782;9.252;2023-07-09T03:36:11;23.50;28.20
439;DHT22;206;48.782;9.252;2023-07-09T03:38:36;23.50;27.80
439;DHT22;206;48.782;9.252;2023-07-09T03:41:02;23.50;27.90
439;DHT22;206;48.782;9.252;2023-07-09T03:43:28;23.50;28.10
439;DHT22;206;48.782;9.252;2023-07-09T03:45:53;23.40;28.10
439;DHT22;206;48.782;9.252;2023-07-09T03:48:19;23.40;28.00
439;DHT22;206;48.782;9.252;2023-07-09T03:50:46;23.40;28.00
439;DHT22;206;48.782;9.252;2023-07-09T03:53:13;23.40;28.60
439;DHT22;206;48.782;9.252;2023-07-09T03:55:39;23.30;28.10
439;DHT22;206;48.782;9.252;2023-07-09T03:58:05;23.30;28.20
439;DHT22;206;48.782;9.252;2023-07-09T04:00:32;23.30;28.40
439;DHT22;206;48.782;9.252;2023-07-09T04:02:58;23.30;28.50
439;DHT22;206;48.782;9.252;2023-07-09T04:05:25;23.20;28.80
439;DHT22;206;48.782;9.252;2023-07-09T04:07:51;23.20;28.90
439;DHT22;206;48.782;9.252;2023-07-09T04:10:17;23.20;29.00
439;DHT22;206;48.782;9.252;2023-07-09T04:12:43;23.20;28.90
439;DHT22;206;48.782;9.252;2023-07-09T04:15:09;23.20;28.90
439;DHT22;206;48.782;9.252;2023-07-09T04:17:35;23.30;28.90
439;DHT22;206;48.782;9.252;2023-07-09T04:20:01;23.20;29.00
439;DHT22;206;48.782;9.252;2023-07-09T04:22:31;23.20;29.00
439;DHT22;206;48.782;9.252;2023-07-09T04:24:57;23.20;29.20
439;DHT22;206;48.782;9.252;2023-07-09T04:27:23;23.20;29.40
439;DHT22;206;48.782;9.252;2023-07-09T04:29:52;23.20;29.50
439;DHT22;206;48.782;9.252;2023-07-09T04:32:19;23.10;29.50
439;DHT22;206;48.782;9.252;2023-07-09T04:34:45;23.10;29.50
439;DHT22;206;48.782;9.252;2023-07-09T04:37:11;23.10;29.70
439;DHT22;206;48.782;9.252;2023-07-09T04:39:38;23.10;29.70
439;DHT22;206;48.782;9.252;2023-07-09T04:42:05;23.10;29.80
439;DHT22;206;48.782;9.252;2023-07-09T04:44:31;23.10;29.80
439;DHT22;206;48.782;9.252;2023-07-09T04:46:56;23.10;29.90
439;DHT22;206;48.782;9.252;2023-07-09T04:49:22;23.10;29.80
439;DHT22;206;48.782;9.252;2023-07-09T04:51:48;23.20;29.70
439;DHT22;206;48.782;9.252;2023-07-09T04:54:14;23.20;29.40
439;DHT22;206;48.782;9.252;2023-07-09T04:56:41;23.30;29.30
439;DHT22;206;48.782;9.252;2023-07-09T04:59:10;23.30;29.00
439;DHT22;206;48.782;9.252;2023-07-09T05:01:35;23.30;28.90
439;DHT22;206;48.782;9.252;2023-07-09T05:04:01;23.30;28.60
439;DHT22;206;48.782;9.252;2023-07-09T05:06:26;23.40;28.50
439;DHT22;206;48.782;9.252;2023-07-09T05:08:52;23.40;28.40
439;DHT22;206;48.782;9.252;2023-07-09T05:11:17;23.50;28.30
439;DHT22;206;48.782;9.252;2023-07-09T05:13:43;23.50;28.30
439;DHT22;206;48.782;9.252;2023-07-09T05:16:09;23.50;28.40
439;DHT22;206;48.782;9.252;2023-07-09T05:18:34;23.50;28.60
439;DHT22;206;48.782;9.252;2023-07-09T05:21:00;23.50;28.90
439;DHT22;206;48.782;9.252;2023-07-09T05:23:25;23.60;28.80
439;DHT22;206;48.782;9.252;2023-07-09T05:25:58;23.70;28.50
439;DHT22;206;48.782;9.252;2023-07-09T05:28:24;23.90;28.30
439;DHT22;206;48.782;9.252;2023-07-09T05:30:50;24.00;27.90
439;DHT22;206;48.782;9.252;2023-07-09T05:33:17;24.20;27.40
439;DHT22;206;48.782;9.252;2023-07-09T05:35:44;24.30;26.80
439;DHT22;206;48.782;9.252;2023-07-09T05:38:09;24.50;26.90
439;DHT22;206;48.782;9.252;2023-07-09T05:40:35;24.60;26.30
439;DHT22;206;48.782;9.252;2023-07-09T05:43:01;24.80;26.10
439;DHT22;206;48.782;9.252;2023-07-09T05:45:26;24.80;25.80
439;DHT22;206;48.782;9.252;2023-07-09T05:47:52;24.90;25.70
439;DHT22;206;48.782;9.252;2023-07-09T05:50:18;24.90;25.70
439;DHT22;206;48.782;9.252;2023-07-09T05:52:43;25.00;25.50
439;DHT22;206;48.782;9.252;2023-07-09T05:55:09;25.00;25.50
439;DHT22;206;48.782;9.252;2023-07-09T05:57:34;25.00;25.30
439;DHT22;206;48.782;9.252;2023-07-09T06:00:00;25.10;25.10
439;DHT22;206;48.782;9.252;2023-07-09T06:02:26;25.20;25.00
439;DHT22;206;48.782;9.252;2023-07-09T06:04:51;25.20;24.90
439;DHT22;206;48.782;9.252;2023-07-09T06:07:17;25.20;24.70
439;DHT22;206;48.782;9.252;2023-07-09T06:09:44;25.30;24.80
439;DHT22;206;48.782;9.252;2023-07-09T06:12:11;25.20;24.90
439;DHT22;206;48.782;9.252;2023-07-09T06:14:36;25.40;24.70
439;DHT22;206;48.782;9.252;2023-07-09T06:17:02;25.40;24.50
439;DHT22;206;48.782;9.252;2023-07-09T06:19:28;25.40;24.30
439;DHT22;206;48.782;9.252;2023-07-09T06:21:53;25.50;24.30
439;DHT22;206;48.782;9.252;2023-07-09T06:24:19;25.70;24.40
439;DHT22;206;48.782;9.252;2023-07-09T06:26:44;25.90;23.40
439;DHT22;206;48.782;9.252;2023-07-09T06:29:10;26.10;23.00
439;DHT22;206;48.782;9.252;2023-07-09T06:31:36;26.30;22.70
439;DHT22;206;48.782;9.252;2023-07-09T06:34:02;26.40;22.10
439;DHT22;206;48.782;9.252;2023-07-09T06:36:28;26.60;21.60
439;DHT22;206;48.782;9.252;2023-07-09T06:38:54;26.90;21.20
439;DHT22;206;48.782;9.252;2023-07-09T06:41:19;27.20;20.30
439;DHT22;206;48.782;9.252;2023-07-09T06:43:46;27.50;20.10
439;DHT22;206;48.782;9.252;2023-07-09T06:46:13;27.70;19.60
439;DHT22;206;48.782;9.252;2023-07-09T06:48:39;28.00;19.10
439;DHT22;206;48.782;9.252;2023-07-09T06:51:05;28.20;18.50
439;DHT22;206;48.782;9.252;2023-07-09T06:53:30;28.40;17.90
439;DHT22;206;48.782;9.252;2023-07-09T06:55:56;28.60;17.50
439;DHT22;206;48.782;9.252;2023-07-09T06:58:25;28.80;17.20
439;DHT22;206;48.782;9.252;2023-07-09T07:00:54;29.00;17.10
439;DHT22;206;48.782;9.252;2023-07-09T07:03:20;29.20;16.50
439;DHT22;206;48.782;9.252;2023-07-09T07:05:48;29.40;16.20
439;DHT22;206;48.782;9.252;2023-07-09T07:08:20;29.70;15.70
439;DHT22;206;48.782;9.252;2023-07-09T07:10:48;29.90;15.50
439;DHT22;206;48.782;9.252;2023-07-09T07:13:14;30.00;15.60
439;DHT22;206;48.782;9.252;2023-07-09T07:15:40;30.20;14.80
439;DHT22;206;48.782;9.252;2023-07-09T07:18:07;30.30;14.40
439;DHT22;206;48.782;9.252;2023-07-09T07:20:33;30.50;14.10
439;DHT22;206;48.782;9.252;2023-07-09T07:22:59;30.70;13.60
439;DHT22;206;48.782;9.252;2023-07-09T07:25:25;30.80;13.20
439;DHT22;206;48.782;9.252;2023-07-09T07:27:51;31.00;13.30
439;DHT22;206;48.782;9.252;2023-07-09T07:30:17;31.20;13.40
439;DHT22;206;48.782;9.252;2023-07-09T07:32:45;31.40;12.90
439;DHT22;206;48.782;9.252;2023-07-09T07:35:12;31.60;12.50
439;DHT22;206;48.782;9.252;2023-07-09T07:37:39;31.80;12.30
439;DHT22;206;48.782;9.252;2023-07-09T07:40:05;32.00;12.00
439;DHT22;206;48.782;9.252;2023-07-09T07:42:31;32.00;11.80
439;DHT22;206;48.782;9.252;2023-07-09T07:44:56;32.00;11.80
439;DHT22;206;48.782;9.252;2023-07-09T07:47:22;32.10;11.70
439;DHT22;206;48.782;9.252;2023-07-09T07:49:48;32.30;11.40
439;DHT22;206;48.782;9.252;2023-07-09T07:52:13;32.40;11.20
439;DHT22;206;48.782;9.252;2023-07-09T07:54:39;32.40;11.10
439;DHT22;206;48.782;9.252;2023-07-09T07:57:05;32.50;10.80
439;DHT22;206;48.782;9.252;2023-07-09T07:59:30;32.70;10.40
439;DHT22;206;48.782;9.252;2023-07-09T08:02:00;32.80;10.20
439;DHT22;206;48.782;9.252;2023-07-09T08:04:26;32.90;10.20
439;DHT22;206;48.782;9.252;2023-07-09T08:06:51;33.10;9.90
439;DHT22;206;48.782;9.252;2023-07-09T08:09:17;33.20;9.40
439;DHT22;206;48.782;9.252;2023-07-09T08:11:43;33.10;9.50
439;DHT22;206;48.782;9.252;2023-07-09T08:14:10;33.30;9.40
439;DHT22;206;48.782;9.252;2023-07-09T08:16:35;33.50;9.20
439;DHT22;206;48.782;9.252;2023-07-09T08:19:01;33.60;8.90
439;DHT22;206;48.782;9.252;2023-07-09T08:21:27;33.70;8.00
439;DHT22;206;48.782;9.252;2023-07-09T08:23:52;33.70;8.20
439;DHT22;206;48.782;9.252;2023-07-09T08:26:18;33.90;8.00
439;DHT22;206;48.782;9.252;2023-07-09T08:28:43;33.80;7.90
439;DHT22;206;48.782;9.252;2023-07-09T08:31:09;33.90;6.50
439;DHT22;206;48.782;9.252;2023-07-09T08:33:35;33.90;7.10
439;DHT22;206;48.782;9.252;2023-07-09T08:36:02;33.90;7.60
439;DHT22;206;48.782;9.252;2023-07-09T08:38:28;34.00;6.80
439;DHT22;206;48.782;9.252;2023-07-09T08:41:07;34.10;6.00
439;DHT22;206;48.782;9.252;2023-07-09T08:46:32;34.10;5.90
439;DHT22;206;48.782;9.252;2023-07-09T08:48:59;34.20;5.90
439;DHT22;206;48.782;9.252;2023-07-09T08:51:38;34.20;5.90
439;DHT22;206;48.782;9.252;2023-07-09T08:54:12;34.30;6.00
439;DHT22;206;48.782;9.252;2023-07-09T08:56:38;34.40;5.90
439;DHT22;206;48.782;9.252;2023-07-09T08:59:05;34.50;5.30
439;DHT22;206;48.782;9.252;2023-07-09T09:01:34;34.50;4.80
439;DHT22;206;48.782;9.252;2023-07-09T09:06:37;34.60;4.50
439;DHT22;206;48.782;9.252;2023-07-09T09:09:26;34.60;4.00
439;DHT22;206;48.782;9.252;2023-07-09T09:12:02;34.60;3.90
439;DHT22;206;48.782;9.252;2023-07-09T09:14:36;34.60;4.00
439;DHT22;206;48.782;9.252;2023-07-09T09:17:11;34.60;4.30
439;DHT22;206;48.782;9.252;2023-07-09T09:19:53;34.60;4.40
439;DHT22;206;48.782;9.252;2023-07-09T09:22:24;34.50;4.50
439;DHT22;206;48.782;9.252;2023-07-09T09:27:21;34.30;4.70
439;DHT22;206;48.782;9.252;2023-07-09T09:29:46;34.30;5.10
439;DHT22;206;48.782;9.252;2023-07-09T09:32:20;34.30;5.20
439;DHT22;206;48.782;9.252;2023-07-09T09:34:47;34.20;4.90
439;DHT22;206;48.782;9.252;2023-07-09T09:37:27;34.30;5.10
439;DHT22;206;48.782;9.252;2023-07-09T09:39:54;34.30;5.00
439;DHT22;206;48.782;9.252;2023-07-09T09:42:20;34.30;4.70
439;DHT22;206;48.782;9.252;2023-07-09T09:44:46;34.30;5.10
439;DHT22;206;48.782;9.252;2023-07-09T09:47:12;34.30;4.70
439;DHT22;206;48.782;9.252;2023-07-09T09:49:39;34.30;4.50
439;DHT22;206;48.782;9.252;2023-07-09T09:52:13;34.30;4.20
439;DHT22;206;48.782;9.252;2023-07-09T09:54:41;34.30;4.50
439;DHT22;206;48.782;9.252;2023-07-09T09:57:22;34.40;4.40
439;DHT22;206;48.782;9.252;2023-07-09T09:59:48;34.50;3.70
439;DHT22;206;48.782;9.252;2023-07-09T10:02:19;34.50;3.10
439;DHT22;206;48.782;9.252;2023-07-09T10:04:46;34.50;3.30
439;DHT22;206;48.782;9.252;2023-07-09T10:07:23;34.30;3.30
439;DHT22;206;48.782;9.252;2023-07-09T10:09:54;34.20;3.20
439;DHT22;206;48.782;9.252;2023-07-09T10:12:36;34.10;2.80
439;DHT22;206;48.782;9.252;2023-07-09T10:20:41;34.20;2.10
439;DHT22;206;48.782;9.252;2023-07-09T10:31:00;34.30;1.10
439;DHT22;206;48.782;9.252;2023-07-09T10:36:43;34.50;1.60
439;DHT22;206;48.782;9.252;2023-07-09T10:39:24;34.50;1.00
439;DHT22;206;48.782;9.252;2023-07-09T10:41:55;34.60;1.00
439;DHT22;206;48.782;9.252;2023-07-09T10:44:29;34.60;1.00
439;DHT22;206;48.782;9.252;2023-07-09T10:47:00;34.60;1.00
439;DHT22;206;48.782;9.252;2023-07-09T10:49:33;34.60;1.00
439;DHT22;206;48.782;9.252;2023-07-09T10:52:18;34.70;1.00
439;DHT22;206;48.782;9.252;2023-07-09T11:00:21;34.90;1.00
439;DHT22;206;48.782;9.252;2023-07-09T11:02:54;35.00;1.00
439;DHT22;206;48.782;9.252;2023-07-09T11:05:23;35.00;1.00
439;DHT22;206;48.782;9.252;2023-07-09T11:08:15;35.00;1.00
439;DHT22;206;48.782;9.252;2023-07-09T11:10:46;35.00;1.00
439;DHT22;206;48.782;9.252;2023-07-09T11:13:17;35.10;1.00
439;DHT22;206;48.782;9.252;2023-07-09T11:15:48;35.20;1.00
439;DHT22;206;48.782;9.252;2023-07-09T11:18:21;35.20;1.00
439;DHT22;206;48.782;9.252;2023-07-09T11:21:04;35.10;1.00
439;DHT22;206;48.782;9.252;2023-07-09T11:23:42;35.10;1.00
439;DHT22;206;48.782;9.252;2023-07-09T11:26:14;35.30;1.00
439;DHT22;206;48.782;9.252;2023-07-09T11:28:41;35.30;1.00
439;DHT22;206;48.782;9.252;2023-07-09T11:31:22;35.40;1.00
439;DHT22;206;48.782;9.252;2023-07-09T11:34:00;35.30;1.00
439;DHT22;206;48.782;9.252;2023-07-09T11:36:30;35.30;1.00
439;DHT22;206;48.782;9.252;2023-07-09T11:38:57;35.20;1.00
439;DHT22;206;48.782;9.252;2023-07-09T11:41:43;35.10;1.00
439;DHT22;206;48.782;9.252;2023-07-09T11:44:28;35.10;1.00
439;DHT22;206;48.782;9.252;2023-07-09T11:47:17;35.10;1.00
439;DHT22;206;48.782;9.252;2023-07-09T11:49:51;35.10;1.00
439;DHT22;206;48.782;9.252;2023-07-09T11:52:22;35.10;1.00
439;DHT22;206;48.782;9.252;2023-07-09T11:54:50;35.20;1.00
439;DHT22;206;48.782;9.252;2023-07-09T11:57:16;35.20;1.00
439;DHT22;206;48.782;9.252;2023-07-09T11:59:43;35.30;1.00
439;DHT22;206;48.782;9.252;2023-07-09T12:02:19;35.40;1.00
439;DHT22;206;48.782;9.252;2023-07-09T12:04:50;35.50;1.00
439;DHT22;206;48.782;9.252;2023-07-09T12:07:16;35.50;1.00
439;DHT22;206;48.782;9.252;2023-07-09T12:09:47;35.60;1.00
439;DHT22;206;48.782;9.252;2023-07-09T12:12:26;35.70;1.00
439;DHT22;206;48.782;9.252;2023-07-09T12:14:53;35.90;1.00
439;DHT22;206;48.782;9.252;2023-07-09T12:17:23;36.00;1.00
439;DHT22;206;48.782;9.252;2023-07-09T12:19:51;36.00;1.00
439;DHT22;206;48.782;9.252;2023-07-09T12:22:21;36.20;1.00
439;DHT22;206;48.782;9.252;2023-07-09T12:24:48;36.20;1.00
439;DHT22;206;48.782;9.252;2023-07-09T12:27:24;36.20;1.00
439;DHT22;206;48.782;9.252;2023-07-09T12:29:55;36.20;1.00
439;DHT22;206;48.782;9.252;2023-07-09T12:32:22;36.10;1.00
439;DHT22;206;48.782;9.252;2023-07-09T12:34:53;36.00;1.00
439;DHT22;206;48.782;9.252;2023-07-09T12:37:20;35.90;1.00
439;DHT22;206;48.782;9.252;2023-07-09T12:39:50;36.00;1.00
439;DHT22;206;48.782;9.252;2023-07-09T12:42:19;36.00;1.00
439;DHT22;206;48.782;9.252;2023-07-09T12:44:46;36.10;1.00
439;DHT22;206;48.782;9.252;2023-07-09T12:47:14;36.10;1.00
439;DHT22;206;48.782;9.252;2023-07-09T12:49:43;36.30;1.00
439;DHT22;206;48.782;9.252;2023-07-09T12:52:20;36.30;1.00
439;DHT22;206;48.782;9.252;2023-07-09T12:54:56;36.50;1.00
439;DHT22;206;48.782;9.252;2023-07-09T12:57:23;36.50;1.00
439;DHT22;206;48.782;9.252;2023-07-09T12:59:49;36.40;1.00
439;DHT22;206;48.782;9.252;2023-07-09T13:02:21;36.40;1.00
439;DHT22;206;48.782;9.252;2023-07-09T13:04:49;36.40;1.00
439;DHT22;206;48.782;9.252;2023-07-09T13:07:25;36.30;1.00
439;DHT22;206;48.782;9.252;2023-07-09T13:09:56;36.20;1.00
439;DHT22;206;48.782;9.252;2023-07-09T13:12:30;36.20;1.00
439;DHT22;206;48.782;9.252;2023-07-09T13:14:56;36.10;1.00
439;DHT22;206;48.782;9.252;2023-07-09T13:17:22;36.20;1.00
439;DHT22;206;48.782;9.252;2023-07-09T13:19:48;36.40;1.00
439;DHT22;206;48.782;9.252;2023-07-09T13:22:16;36.50;1.00
439;DHT22;206;48.782;9.252;2023-07-09T13:24:42;36.60;1.00
439;DHT22;206;48.782;9.252;2023-07-09T13:27:12;36.70;1.00
439;DHT22;206;48.782;9.252;2023-07-09T13:29:37;36.80;1.00
439;DHT22;206;48.782;9.252;2023-07-09T13:32:12;36.80;1.00
439;DHT22;206;48.782;9.252;2023-07-09T13:34:38;36.90;1.00
439;DHT22;206;48.782;9.252;2023-07-09T13:37:08;37.00;1.00
439;DHT22;206;48.782;9.252;2023-07-09T13:39:34;37.10;1.00
439;DHT22;206;48.782;9.252;2023-07-09T13:42:00;37.10;1.00
439;DHT22;206;48.782;9.252;2023-07-09T13:44:29;37.20;1.00
439;DHT22;206;48.782;9.252;2023-07-09T13:46:56;37.20;1.00
439;DHT22;206;48.782;9.252;2023-07-09T13:49:26;37.20;1.00
439;DHT22;206;48.782;9.252;2023-07-09T13:51:55;37.20;1.00
439;DHT22;206;48.782;9.252;2023-07-09T13:54:24;37.30;1.00
439;DHT22;206;48.782;9.252;2023-07-09T13:56:50;37.30;1.00
439;DHT22;206;48.782;9.252;2023-07-09T13:59:21;37.10;1.00
439;DHT22;206;48.782;9.252;2023-07-09T14:01:50;37.00;1.00
439;DHT22;206;48.782;9.252;2023-07-09T14:04:18;37.00;1.00
439;DHT22;206;48.782;9.252;2023-07-09T14:06:45;37.00;1.00
439;DHT22;206;48.782;9.252;2023-07-09T14:09:14;37.00;1.00
439;DHT22;206;48.782;9.252;2023-07-09T14:11:49;37.00;1.00
439;DHT22;206;48.782;9.252;2023-07-09T14:14:20;37.00;1.00
439;DHT22;206;48.782;9.252;2023-07-09T14:16:47;37.00;1.00
439;DHT22;206;48.782;9.252;2023-07-09T14:19:15;37.00;1.00
439;DHT22;206;48.782;9.252;2023-07-09T14:21:42;37.00;1.00
439;DHT22;206;48.782;9.252;2023-07-09T14:24:24;37.00;1.00
439;DHT22;206;48.782;9.252;2023-07-09T14:26:51;37.00;1.00
439;DHT22;206;48.782;9.252;2023-07-09T14:29:16;37.10;1.00
439;DHT22;206;48.782;9.252;2023-07-09T14:31:45;37.10;1.00
439;DHT22;206;48.782;9.252;2023-07-09T14:34:30;37.20;1.00
439;DHT22;206;48.782;9.252;2023-07-09T14:36:58;37.30;1.00
439;DHT22;206;48.782;9.252;2023-07-09T14:39:26;37.40;1.00
439;DHT22;206;48.782;9.252;2023-07-09T14:42:10;37.40;1.00
439;DHT22;206;48.782;9.252;2023-07-09T14:44:41;37.50;1.00
439;DHT22;206;48.782;9.252;2023-07-09T14:47:20;37.50;1.00
439;DHT22;206;48.782;9.252;2023-07-09T14:49:47;37.40;1.00
439;DHT22;206;48.782;9.252;2023-07-09T14:52:18;37.60;1.00
439;DHT22;206;48.782;9.252;2023-07-09T14:54:46;37.60;1.00
439;DHT22;206;48.782;9.252;2023-07-09T14:57:22;37.50;1.00
439;DHT22;206;48.782;9.252;2023-07-09T14:59:49;37.50;1.00
439;DHT22;206;48.782;9.252;2023-07-09T15:02:42;37.40;1.00
439;DHT22;206;48.782;9.252;2023-07-09T15:05:15;37.40;1.00
439;DHT22;206;48.782;9.252;2023-07-09T15:07:41;37.40;1.00
439;DHT22;206;48.782;9.252;2023-07-09T15:10:12;37.40;1.00
439;DHT22;206;48.782;9.252;2023-07-09T15:12:37;37.50;1.00
439;DHT22;206;48.782;9.252;2023-07-09T15:17:38;37.70;1.00
439;DHT22;206;48.782;9.252;2023-07-09T15:20:04;37.80;1.00
439;DHT22;206;48.782;9.252;2023-07-09T15:22:32;37.80;1.00
439;DHT22;206;48.782;9.252;2023-07-09T15:24:58;37.80;1.00
439;DHT22;206;48.782;9.252;2023-07-09T15:27:24;37.70;1.00
439;DHT22;206;48.782;9.252;2023-07-09T15:29:50;37.70;1.00
439;DHT22;206;48.782;9.252;2023-07-09T15:32:16;37.80;1.00
439;DHT22;206;48.782;9.252;2023-07-09T15:34:41;37.80;1.00
439;DHT22;206;48.782;9.252;2023-07-09T15:37:15;37.70;1.00
439;DHT22;206;48.782;9.252;2023-07-09T15:39:42;37.70;1.00
439;DHT22;206;48.782;9.252;2023-07-09T15:42:12;37.70;1.00
439;DHT22;206;48.782;9.252;2023-07-09T15:44:39;37.60;1.00
439;DHT22;206;48.782;9.252;2023-07-09T15:47:05;37.60;1.00
439;DHT22;206;48.782;9.252;2023-07-09T15:49:35;37.50;1.00
439;DHT22;206;48.782;9.252;2023-07-09T15:52:01;37.40;1.00
439;DHT22;206;48.782;9.252;2023-07-09T15:54:28;37.40;1.00
439;DHT22;206;48.782;9.252;2023-07-09T15:56:53;37.40;1.00
439;DHT22;206;48.782;9.252;2023-07-09T15:59:28;37.40;1.00
439;DHT22;206;48.782;9.252;2023-07-09T16:01:54;37.40;1.00
439;DHT22;206;48.782;9.252;2023-07-09T16:04:20;37.40;1.00
439;DHT22;206;48.782;9.252;2023-07-09T16:06:46;37.40;1.00
439;DHT22;206;48.782;9.252;2023-07-09T16:09:12;37.40;1.00
439;DHT22;206;48.782;9.252;2023-07-09T16:11:40;37.40;1.00
439;DHT22;206;48.782;9.252;2023-07-09T16:14:26;37.40;1.00
439;DHT22;206;48.782;9.252;2023-07-09T16:16:53;37.40;1.00
439;DHT22;206;48.782;9.252;2023-07-09T16:19:21;37.40;1.00
439;DHT22;206;48.782;9.252;2023-07-09T16:21:48;37.30;1.00
439;DHT22;206;48.782;9.252;2023-07-09T16:24:24;37.30;1.00
439;DHT22;206;48.782;9.252;2023-07-09T16:26:50;37.20;1.00
439;DHT22;206;48.782;9.252;2023-07-09T16:29:30;37.20;1.00
439;DHT22;206;48.782;9.252;2023-07-09T16:31:57;37.20;1.00
439;DHT22;206;48.782;9.252;2023-07-09T16:34:27;37.10;1.00
439;DHT22;206;48.782;9.252;2023-07-09T16:36:54;37.10;1.00
439;DHT22;206;48.782;9.252;2023-07-09T16:39:26;37.00;1.00
439;DHT22;206;48.782;9.252;2023-07-09T16:41:53;37.00;1.00
439;DHT22;206;48.782;9.252;2023-07-09T16:44:19;36.90;1.00
439;DHT22;206;48.782;9.252;2023-07-09T16:46:45;36.90;1.00
439;DHT22;206;48.782;9.252;2023-07-09T16:51:55;36.80;1.00
439;DHT22;206;48.782;9.252;2023-07-09T16:54:20;36.70;1.00
439;DHT22;206;48.782;9.252;2023-07-09T16:56:46;36.70;1.00
439;DHT22;206;48.782;9.252;2023-07-09T16:59:12;36.70;1.00
439;DHT22;206;48.782;9.252;2023-07-09T17:01:37;36.70;1.00
439;DHT22;206;48.782;9.252;2023-07-09T17:06:42;36.60;1.00
439;DHT22;206;48.782;9.252;2023-07-09T17:09:08;36.60;1.00
439;DHT22;206;48.782;9.252;2023-07-09T17:11:34;36.50;1.00
439;DHT22;206;48.782;9.252;2023-07-09T17:14:00;36.50;1.00
439;DHT22;206;48.782;9.252;2023-07-09T17:16:26;36.50;1.00
439;DHT22;206;48.782;9.252;2023-07-09T17:18:51;36.50;1.00
439;DHT22;206;48.782;9.252;2023-07-09T17:21:17;36.50;1.00
439;DHT22;206;48.782;9.252;2023-07-09T17:23:43;36.50;1.00
439;DHT22;206;48.782;9.252;2023-07-09T17:26:09;36.40;1.00
439;DHT22;206;48.782;9.252;2023-07-09T17:28:34;36.50;1.00
439;DHT22;206;48.782;9.252;2023-07-09T17:31:02;36.50;1.00
439;DHT22;206;48.782;9.252;2023-07-09T17:33:28;36.60;1.00
439;DHT22;206;48.782;9.252;2023-07-09T17:35:56;36.60;1.00